sensor_id;sensor_type;location;lat;lon;timestamp;P1;durP1;ratioP1;P2;durP2;ratioP2
50695;SDS011;36665;51.786;21.594;2023-05-23T00:00:06;54.00;;;18.80;;
50695;SDS011;36665;51.786;21.594;2023-05-23T00:08:53;27.20;;;11.60;;
50695;SDS011;36665;51.786;21.594;2023-05-23T00:17:19;34.40;;;14.60;;
50695;SDS011;36665;51.786;21.594;2023-05-23T00:25:43;14.10;;;8.20;;
50695;SDS011;36665;51.786;21.594;2023-05-23T00:34:09;13.20;;;7.70;;
50695;SDS011;36665;51.786;21.594;2023-05-23T00:42:33;20.00;;;8.00;;
50695;SDS011;36665;51.786;21.594;2023-05-23T00:50:55;16.90;;;7.80;;
50695;SDS011;36665;51.786;21.594;2023-05-23T01:09:16;15.00;;;8.30;;
50695;SDS011;36665;51.786;21.594;2023-05-23T01:34:48;14.70;;;8.60;;
50695;SDS011;36665;51.786;21.594;2023-05-23T01:43:17;13.50;;;7.60;;
50695;SDS011;36665;51.786;21.594;2023-05-23T01:51:40;12.20;;;7.50;;
50695;SDS011;36665;51.786;21.594;2023-05-23T02:00:04;93.10;;;28.20;;
50695;SDS011;36665;51.786;21.594;2023-05-23T02:08:36;131.70;;;29.70;;
50695;SDS011;36665;51.786;21.594;2023-05-23T02:17:00;83.30;;;19.40;;
50695;SDS011;36665;51.786;21.594;2023-05-23T02:25:23;198.10;;;38.90;;
50695;SDS011;36665;51.786;21.594;2023-05-23T02:33:46;98.00;;;23.70;;
50695;SDS011;36665;51.786;21.594;2023-05-23T02:42:09;183.10;;;59.30;;
50695;SDS011;36665;51.786;21.594;2023-05-23T02:50:32;46.80;;;16.60;;
50695;SDS011;36665;51.786;21.594;2023-05-23T02:58:55;35.90;;;14.20;;
50695;SDS011;36665;51.786;21.594;2023-05-23T03:07:18;34.80;;;14.80;;
50695;SDS011;36665;51.786;21.594;2023-05-23T03:15:50;15.40;;;8.20;;
50695;SDS011;36665;51.786;21.594;2023-05-23T03:24:13;10.20;;;7.10;;
50695;SDS011;36665;51.786;21.594;2023-05-23T03:32:36;10.00;;;6.00;;
50695;SDS011;36665;51.786;21.594;2023-05-23T03:41:00;10.90;;;6.70;;
50695;SDS011;36665;51.786;21.594;2023-05-23T03:49:23;9.70;;;6.10;;
50695;SDS011;36665;51.786;21.594;2023-05-23T03:57:46;13.10;;;6.60;;
50695;SDS011;36665;51.786;21.594;2023-05-23T04:06:09;10.20;;;4.90;;
50695;SDS011;36665;51.786;21.594;2023-05-23T04:14:38;10.40;;;4.90;;
50695;SDS011;36665;51.786;21.594;2023-05-23T04:23:02;10.50;;;5.10;;
50695;SDS011;36665;51.786;21.594;2023-05-23T04:31:27;9.50;;;4.70;;
50695;SDS011;36665;51.786;21.594;2023-05-23T04:39:51;7.80;;;4.80;;
50695;SDS011;36665;51.786;21.594;2023-05-23T04:48:36;6.00;;;4.50;;
50695;SDS011;36665;51.786;21.594;2023-05-23T04:57:00;11.40;;;4.70;;
50695;SDS011;36665;51.786;21.594;2023-05-23T05:05:24;8.80;;;5.00;;
50695;SDS011;36665;51.786;21.594;2023-05-23T05:13:48;6.10;;;3.90;;
50695;SDS011;36665;51.786;21.594;2023-05-23T05:22:11;12.80;;;4.20;;
50695;SDS011;36665;51.786;21.594;2023-05-23T05:30:35;6.60;;;3.90;;
50695;SDS011;36665;51.786;21.594;2023-05-23T05:39:00;13.40;;;3.60;;
50695;SDS011;36665;51.786;21.594;2023-05-23T05:47:24;6.80;;;3.70;;
50695;SDS011;36665;51.786;21.594;2023-05-23T05:55:48;8.40;;;2.90;;
50695;SDS011;36665;51.786;21.594;2023-05-23T06:04:11;4.90;;;2.50;;
50695;SDS011;36665;51.786;21.594;2023-05-23T06:12:36;37.50;;;6.10;;
50695;SDS011;36665;51.786;21.594;2023-05-23T06:20:59;10.10;;;2.40;;
50695;SDS011;36665;51.786;21.594;2023-05-23T06:29:23;3.60;;;2.40;;
50695;SDS011;36665;51.786;21.594;2023-05-23T06:37:48;7.40;;;2.80;;
50695;SDS011;36665;51.786;21.594;2023-05-23T06:46:11;7.00;;;2.60;;
50695;SDS011;36665;51.786;21.594;2023-05-23T06:54:36;9.40;;;5.60;;
50695;SDS011;36665;51.786;21.594;2023-05-23T07:03:02;7.80;;;2.70;;
50695;SDS011;36665;51.786;21.594;2023-05-23T07:11:26;4.20;;;2.20;;
50695;SDS011;36665;51.786;21.594;2023-05-23T07:19:53;1.90;;;1.70;;
50695;SDS011;36665;51.786;21.594;2023-05-23T07:28:16;6.20;;;4.20;;
50695;SDS011;36665;51.786;21.594;2023-05-23T07:36:40;5.80;;;2.10;;
50695;SDS011;36665;51.786;21.594;2023-05-23T07:45:05;2.90;;;2.00;;
50695;SDS011;36665;51.786;21.594;2023-05-23T07:53:31;11.00;;;2.10;;
50695;SDS011;36665;51.786;21.594;2023-05-23T08:01:54;6.10;;;2.00;;
50695;SDS011;36665;51.786;21.594;2023-05-23T08:10:20;9.60;;;8.60;;
50695;SDS011;36665;51.786;21.594;2023-05-23T08:18:43;5.30;;;2.40;;
50695;SDS011;36665;51.786;21.594;2023-05-23T08:27:06;10.10;;;5.90;;
50695;SDS011;36665;51.786;21.594;2023-05-23T08:35:31;7.10;;;2.50;;
50695;SDS011;36665;51.786;21.594;2023-05-23T08:44:01;13.80;;;2.30;;
50695;SDS011;36665;51.786;21.594;2023-05-23T08:52:28;13.50;;;5.90;;
50695;SDS011;36665;51.786;21.594;2023-05-23T09:00:54;4.00;;;2.20;;
50695;SDS011;36665;51.786;21.594;2023-05-23T09:09:18;3.90;;;1.90;;
50695;SDS011;36665;51.786;21.594;2023-05-23T09:17:41;7.20;;;2.00;;
50695;SDS011;36665;51.786;21.594;2023-05-23T09:26:06;5.60;;;2.30;;
50695;SDS011;36665;51.786;21.594;2023-05-23T09:34:31;3.10;;;2.20;;
50695;SDS011;36665;51.786;21.594;2023-05-23T09:42:54;8.70;;;5.80;;
50695;SDS011;36665;51.786;21.594;2023-05-23T09:51:17;9.20;;;2.80;;
50695;SDS011;36665;51.786;21.594;2023-05-23T09:59:52;4.00;;;2.10;;
50695;SDS011;36665;51.786;21.594;2023-05-23T10:08:17;8.20;;;2.10;;
50695;SDS011;36665;51.786;21.594;2023-05-23T10:25:23;3.10;;;2.30;;
50695;SDS011;36665;51.786;21.594;2023-05-23T10:33:51;8.10;;;2.50;;
50695;SDS011;36665;51.786;21.594;2023-05-23T10:51:02;7.50;;;2.40;;
50695;SDS011;36665;51.786;21.594;2023-05-23T10:59:30;22.80;;;17.90;;
50695;SDS011;36665;51.786;21.594;2023-05-23T11:16:39;7.70;;;2.30;;
50695;SDS011;36665;51.786;21.594;2023-05-23T11:25:07;5.10;;;2.60;;
50695;SDS011;36665;51.786;21.594;2023-05-23T11:33:33;9.00;;;3.00;;
50695;SDS011;36665;51.786;21.594;2023-05-23T11:42:00;5.50;;;3.10;;
50695;SDS011;36665;51.786;21.594;2023-05-23T11:50:24;8.40;;;3.30;;
50695;SDS011;36665;51.786;21.594;2023-05-23T11:58:47;4.20;;;2.90;;
50695;SDS011;36665;51.786;21.594;2023-05-23T12:07:10;10.10;;;3.20;;
50695;SDS011;36665;51.786;21.594;2023-05-23T12:15:33;11.10;;;3.30;;
50695;SDS011;36665;51.786;21.594;2023-05-23T12:23:56;7.70;;;3.00;;
50695;SDS011;36665;51.786;21.594;2023-05-23T12:32:19;6.70;;;3.20;;
50695;SDS011;36665;51.786;21.594;2023-05-23T12:40:46;9.10;;;3.20;;
50695;SDS011;36665;51.786;21.594;2023-05-23T12:49:10;7.60;;;2.90;;
50695;SDS011;36665;51.786;21.594;2023-05-23T12:57:33;4.80;;;3.20;;
50695;SDS011;36665;51.786;21.594;2023-05-23T13:05:57;5.90;;;3.20;;
50695;SDS011;36665;51.786;21.594;2023-05-23T13:14:20;6.10;;;3.30;;
50695;SDS011;36665;51.786;21.594;2023-05-23T13:22:43;5.90;;;3.40;;
50695;SDS011;36665;51.786;21.594;2023-05-23T13:31:06;7.30;;;3.90;;
50695;SDS011;36665;51.786;21.594;2023-05-23T13:39:29;5.50;;;3.10;;
50695;SDS011;36665;51.786;21.594;2023-05-23T13:47:53;9.40;;;3.20;;
50695;SDS011;36665;51.786;21.594;2023-05-23T13:56:16;9.20;;;3.90;;
50695;SDS011;36665;51.786;21.594;2023-05-23T14:04:39;11.50;;;4.40;;
50695;SDS011;36665;51.786;21.594;2023-05-23T14:13:02;7.20;;;3.10;;
50695;SDS011;36665;51.786;21.594;2023-05-23T14:21:26;11.20;;;3.30;;
50695;SDS011;36665;51.786;21.594;2023-05-23T14:29:49;8.50;;;3.10;;
50695;SDS011;36665;51.786;21.594;2023-05-23T14:38:12;6.30;;;2.90;;
50695;SDS011;36665;51.786;21.594;2023-05-23T14:46:35;6.20;;;2.80;;
50695;SDS011;36665;51.786;21.594;2023-05-23T14:54:59;15.20;;;8.40;;
50695;SDS011;36665;51.786;21.594;2023-05-23T15:03:22;3.30;;;2.50;;
50695;SDS011;36665;51.786;21.594;2023-05-23T15:11:45;5.50;;;2.60;;
50695;SDS011;36665;51.786;21.594;2023-05-23T15:20:11;6.10;;;2.90;;
50695;SDS011;36665;51.786;21.594;2023-05-23T15:28:34;9.60;;;2.70;;
50695;SDS011;36665;51.786;21.594;2023-05-23T15:36:57;6.80;;;2.50;;
50695;SDS011;36665;51.786;21.594;2023-05-23T15:45:20;4.30;;;1.90;;
50695;SDS011;36665;51.786;21.594;2023-05-23T15:53:43;72.30;;;52.70;;
50695;SDS011;36665;51.786;21.594;2023-05-23T16:02:22;7.60;;;3.00;;
50695;SDS011;36665;51.786;21.594;2023-05-23T16:10:50;4.00;;;2.40;;
50695;SDS011;36665;51.786;21.594;2023-05-23T16:19:13;9.30;;;2.40;;
50695;SDS011;36665;51.786;21.594;2023-05-23T16:27:37;11.20;;;2.70;;
50695;SDS011;36665;51.786;21.594;2023-05-23T16:36:01;4.50;;;2.40;;
50695;SDS011;36665;51.786;21.594;2023-05-23T16:44:24;11.10;;;3.90;;
50695;SDS011;36665;51.786;21.594;2023-05-23T16:52:48;8.70;;;5.00;;
50695;SDS011;36665;51.786;21.594;2023-05-23T17:01:11;4.60;;;2.80;;
50695;SDS011;36665;51.786;21.594;2023-05-23T17:09:35;7.00;;;2.30;;
50695;SDS011;36665;51.786;21.594;2023-05-23T17:17:58;3.00;;;2.30;;
50695;SDS011;36665;51.786;21.594;2023-05-23T17:26:22;26.40;;;18.20;;
50695;SDS011;36665;51.786;21.594;2023-05-23T17:34:48;6.70;;;3.60;;
50695;SDS011;36665;51.786;21.594;2023-05-23T17:43:11;9.60;;;2.70;;
50695;SDS011;36665;51.786;21.594;2023-05-23T17:51:35;12.00;;;8.20;;
50695;SDS011;36665;51.786;21.594;2023-05-23T17:59:58;16.40;;;4.00;;
50695;SDS011;36665;51.786;21.594;2023-05-23T18:08:22;33.70;;;17.20;;
50695;SDS011;36665;51.786;21.594;2023-05-23T18:16:45;75.70;;;34.30;;
50695;SDS011;36665;51.786;21.594;2023-05-23T18:25:09;141.60;;;77.30;;
50695;SDS011;36665;51.786;21.594;2023-05-23T18:33:33;92.10;;;43.90;;
50695;SDS011;36665;51.786;21.594;2023-05-23T18:41:57;45.50;;;21.70;;
50695;SDS011;36665;51.786;21.594;2023-05-23T18:50:22;21.70;;;8.10;;
50695;SDS011;36665;51.786;21.594;2023-05-23T18:58:46;14.30;;;6.70;;
50695;SDS011;36665;51.786;21.594;2023-05-23T19:07:12;13.10;;;6.50;;
50695;SDS011;36665;51.786;21.594;2023-05-23T19:15:36;15.10;;;6.60;;
50695;SDS011;36665;51.786;21.594;2023-05-23T19:24:00;18.00;;;8.30;;
50695;SDS011;36665;51.786;21.594;2023-05-23T19:32:23;70.00;;;21.90;;
50695;SDS011;36665;51.786;21.594;2023-05-23T19:40:47;99.40;;;31.70;;
50695;SDS011;36665;51.786;21.594;2023-05-23T19:49:11;66.60;;;25.40;;
50695;SDS011;36665;51.786;21.594;2023-05-23T19:57:37;40.20;;;20.80;;
50695;SDS011;36665;51.786;21.594;2023-05-23T20:06:00;32.30;;;19.70;;
50695;SDS011;36665;51.786;21.594;2023-05-23T20:14:24;39.20;;;19.30;;
50695;SDS011;36665;51.786;21.594;2023-05-23T20:22:49;36.00;;;17.40;;
50695;SDS011;36665;51.786;21.594;2023-05-23T20:31:14;35.00;;;17.90;;
50695;SDS011;36665;51.786;21.594;2023-05-23T20:39:38;46.00;;;19.40;;
50695;SDS011;36665;51.786;21.594;2023-05-23T20:48:03;79.90;;;33.60;;
50695;SDS011;36665;51.786;21.594;2023-05-23T20:56:26;55.80;;;26.60;;
50695;SDS011;36665;51.786;21.594;2023-05-23T21:04:49;53.40;;;25.80;;
50695;SDS011;36665;51.786;21.594;2023-05-23T21:13:12;47.90;;;22.90;;
50695;SDS011;36665;51.786;21.594;2023-05-23T21:21:35;39.30;;;18.20;;
50695;SDS011;36665;51.786;21.594;2023-05-23T21:29:59;29.60;;;13.10;;
50695;SDS011;36665;51.786;21.594;2023-05-23T21:38:21;18.60;;;11.20;;
50695;SDS011;36665;51.786;21.594;2023-05-23T21:46:46;23.40;;;11.40;;
50695;SDS011;36665;51.786;21.594;2023-05-23T21:55:09;37.10;;;12.20;;
50695;SDS011;36665;51.786;21.594;2023-05-23T22:03:32;27.60;;;12.20;;
50695;SDS011;36665;51.786;21.594;2023-05-23T22:11:55;15.80;;;8.50;;
50695;SDS011;36665;51.786;21.594;2023-05-23T22:20:19;14.90;;;6.80;;
50695;SDS011;36665;51.786;21.594;2023-05-23T22:28:44;10.80;;;6.70;;
50695;SDS011;36665;51.786;21.594;2023-05-23T22:37:08;13.60;;;6.00;;
50695;SDS011;36665;51.786;21.594;2023-05-23T22:45:31;9.60;;;5.50;;
50695;SDS011;36665;51.786;21.594;2023-05-23T22:54:04;8.60;;;5.50;;
50695;SDS011;36665;51.786;21.594;2023-05-23T23:02:27;11.00;;;5.50;;
50695;SDS011;36665;51.786;21.594;2023-05-23T23:10:50;7.30;;;5.20;;
50695;SDS011;36665;51.786;21.594;2023-05-23T23:19:13;7.30;;;5.10;;
50695;SDS011;36665;51.786;21.594;2023-05-23T23:27:36;8.40;;;4.90;;
50695;SDS011;36665;51.786;21.594;2023-05-23T23:36:00;8.60;;;5.40;;
50695;SDS011;36665;51.786;21.594;2023-05-23T23:44:22;7.10;;;5.10;;
50695;SDS011;36665;51.786;21.594;2023-05-23T23:52:45;13.80;;;5.30;;
